createdAt,value
2023-03-05T00:00:24.359Z,94555.69
2023-03-05T00:03:27.525Z,94541.63
2023-03-05T00:06:31.929Z,94545.06
2023-03-05T00:09:35.898Z,94543.97
2023-03-05T00:12:40.490Z,94541.16
2023-03-05T00:15:43.697Z,94527.38
2023-03-05T00:18:47.490Z,94535.53
2023-03-05T00:21:50.623Z,94534.75
2023-03-05T00:24:53.847Z,94537.09
2023-03-05T00:27:58.439Z,94527.56
2023-03-05T00:31:02.367Z,94519.13
2023-03-05T00:34:07.749Z,94521.16
2023-03-05T00:37:10.887Z,94514.28
2023-03-05T00:40:14.203Z,94511.63
2023-03-05T00:43:18.786Z,94517.72
2023-03-05T00:46:22.053Z,94513.19
2023-03-05T00:49:25.289Z,94493.94
2023-03-05T00:52:28.518Z,94510.53
2023-03-05T00:55:31.627Z,94501.78
2023-03-05T00:58:36.165Z,94496.47
2023-03-05T01:01:39.346Z,94499.13
2023-03-05T01:04:45.946Z,94491.94
2023-03-05T01:07:49.057Z,94493.81
2023-03-05T01:10:52.518Z,94490.38
2023-03-05T01:13:56.959Z,94486.63
2023-03-05T01:17:00.010Z,94480.53
2023-03-05T01:20:03.278Z,94483.19
2023-03-05T01:23:06.397Z,94481.63
2023-03-05T01:26:09.746Z,94479.75
2023-03-05T01:29:14.578Z,94473.34
2023-03-05T01:32:17.874Z,94465.81
2023-03-05T01:35:24.130Z,94474.44
2023-03-05T01:38:27.488Z,94476.00
2023-03-05T01:41:30.773Z,94468.03
2023-03-05T01:44:36.437Z,94448.59
2023-03-05T01:47:39.758Z,94463.94
2023-03-05T01:50:42.911Z,94476.78
2023-03-05T01:53:46.358Z,94475.22
2023-03-05T01:56:51.562Z,94457.50
2023-03-05T02:00:02.025Z,94482.09
2023-03-05T02:03:08.581Z,94480.53
2023-03-05T02:06:11.874Z,94478.66
2023-03-05T02:09:15.328Z,94477.56
2023-03-05T02:12:19.087Z,94473.34
2023-03-05T02:15:23.859Z,94475.22
2023-03-05T02:18:27.919Z,94475.22
2023-03-05T02:21:38.754Z,94457.50
2023-03-05T02:24:41.912Z,94481.31
2023-03-05T02:27:51.775Z,94467.38
2023-03-05T02:30:55.141Z,94479.44
2023-03-05T02:33:58.447Z,94456.41
2023-03-05T02:37:04.815Z,94475.22
2023-03-05T02:40:09.633Z,94473.16
2023-03-05T02:43:13.336Z,94472.56
2023-03-05T02:46:16.509Z,94485.53
2023-03-05T02:49:19.667Z,94476.78
2023-03-05T02:52:25.534Z,94482.88
2023-03-05T02:55:28.771Z,94482.09
2023-03-05T02:58:31.856Z,94479.75
2023-03-05T03:01:35.028Z,94481.00
2023-03-05T03:04:38.251Z,94476.78
2023-03-05T03:07:42.801Z,94468.81
2023-03-05T03:10:46.058Z,94476.78
2023-03-05T03:13:49.181Z,94477.88
2023-03-05T03:16:52.302Z,94473.34
2023-03-05T03:19:55.362Z,94469.72
2023-03-05T03:22:59.824Z,94480.06
2023-03-05T03:26:02.920Z,94477.09
2023-03-05T03:29:06.035Z,94463.28
2023-03-05T03:32:09.845Z,94473.66
2023-03-05T03:35:14.432Z,94468.34
2023-03-05T03:38:18.957Z,94466.78
2023-03-05T03:41:22.078Z,94463.81
2023-03-05T03:44:25.566Z,94463.03
2023-03-05T03:47:28.681Z,94461.47
2023-03-05T03:50:31.836Z,94464.13
2023-03-05T03:53:36.532Z,94465.69
2023-03-05T03:56:39.580Z,94461.47
2023-03-05T03:59:42.696Z,94469.13
2023-03-05T04:02:45.808Z,94471.00
2023-03-05T04:05:49.011Z,94480.84
2023-03-05T04:08:53.568Z,94478.97
2023-03-05T04:11:56.667Z,94483.50
2023-03-05T04:14:59.748Z,94473.66
2023-03-05T04:18:03.009Z,94479.28
2023-03-05T04:21:06.787Z,94463.28
2023-03-05T04:24:11.444Z,94473.97
2023-03-05T04:27:14.514Z,94477.09
2023-03-05T04:30:17.982Z,94475.22
2023-03-05T04:33:21.132Z,94463.81
2023-03-05T04:36:24.189Z,94468.34
2023-03-05T04:39:28.863Z,94468.34
2023-03-05T04:42:32.076Z,94466.47
2023-03-05T04:45:35.530Z,94467.56
2023-03-05T04:48:38.677Z,94465.19
2023-03-05T04:51:41.822Z,94462.25
2023-03-05T04:54:47.183Z,94458.31
2023-03-05T04:57:50.248Z,94461.47
2023-03-05T05:00:53.285Z,94458.31
2023-03-05T05:03:56.328Z,94472.09
2023-03-05T05:07:00.262Z,94472.88
2023-03-05T05:10:05.287Z,94463.34
2023-03-05T05:13:08.509Z,94470.22
2023-03-05T05:16:11.713Z,94458.16
2023-03-05T05:19:14.999Z,94464.06
2023-03-05T05:22:18.389Z,94477.41
2023-03-05T05:25:22.968Z,94477.41
2023-03-05T05:28:26.209Z,94478.19
2023-03-05T05:31:29.357Z,94477.41
2023-03-05T05:34:32.479Z,94484.28
2023-03-05T05:37:35.747Z,94481.63
2023-03-05T05:40:40.711Z,94489.59
2023-03-05T05:43:43.862Z,94488.03
2023-03-05T05:46:47.051Z,94489.59
2023-03-05T05:49:50.132Z,94501.78
2023-03-05T05:52:53.440Z,94496.78
2023-03-05T05:55:57.956Z,94504.44
2023-03-05T05:59:01.299Z,94504.44
2023-03-05T06:02:04.506Z,94502.56
2023-03-05T06:05:09.132Z,94504.13
2023-03-05T06:08:12.389Z,94504.91
2023-03-05T06:11:19.356Z,94501.78
2023-03-05T06:14:22.671Z,94513.38
2023-03-05T06:17:30.789Z,94521.63
2023-03-05T06:20:34.160Z,94497.69
2023-03-05T06:23:37.272Z,94519.78
2023-03-05T06:26:41.857Z,94521.06
2023-03-05T06:29:44.971Z,94518.09
2023-03-05T06:32:48.064Z,94518.09
2023-03-05T06:35:51.190Z,94512.41
2023-03-05T06:38:55.069Z,94528.09
2023-03-05T06:41:59.557Z,94521.22
2023-03-05T06:45:02.643Z,94525.91
2023-03-05T06:48:06.088Z,94522.16
2023-03-05T06:51:15.448Z,94525.31
2023-03-05T06:54:18.971Z,94521.22
2023-03-05T06:57:23.539Z,94527.38
2023-03-05T07:00:29.745Z,94523.63
2023-03-05T07:03:32.842Z,94524.88
2023-03-05T07:06:38.277Z,94503.72
2023-03-05T07:09:44.259Z,94533.63
2023-03-05T07:12:48.802Z,94532.22
2023-03-05T07:15:51.885Z,94538.31
2023-03-05T07:18:56.059Z,94534.56
2023-03-05T07:21:59.193Z,94533.47
2023-03-05T07:25:02.266Z,94527.53
2023-03-05T07:28:07.657Z,94535.72
2023-03-05T07:31:14.442Z,94534.31
2023-03-05T07:34:17.554Z,94538.41
2023-03-05T07:37:20.677Z,94519.66
2023-03-05T07:40:23.870Z,94540.31
2023-03-05T07:43:28.344Z,94535.91
2023-03-05T07:46:34.292Z,94538.91
2023-03-05T07:49:39.376Z,94534.50
2023-03-05T07:52:42.467Z,94535.44
2023-03-05T07:55:46.083Z,94536.06
2023-03-05T07:58:50.615Z,94528.41
2023-03-05T08:01:53.778Z,94531.34
2023-03-05T08:04:56.980Z,94535.09
2023-03-05T08:08:00.412Z,94537.28
2023-03-05T08:11:05.635Z,94526.19
2023-03-05T08:14:10.449Z,94537.13
2023-03-05T08:17:13.665Z,94533.22
2023-03-05T08:20:16.851Z,94535.09
2023-03-05T08:23:20.015Z,94529.91
2023-03-05T08:26:25.332Z,94533.06
2023-03-05T08:29:30.663Z,94536.03
2023-03-05T08:32:33.904Z,94520.81
2023-03-05T08:35:37.097Z,94531.28
2023-03-05T08:38:40.388Z,94525.97
2023-03-05T08:41:43.512Z,94526.28
2023-03-05T08:44:48.147Z,94516.44
2023-03-05T08:47:51.252Z,94514.41
2023-03-05T08:50:54.642Z,94507.06
2023-03-05T08:54:01.863Z,94510.03
2023-03-05T08:57:05.387Z,94506.44
2023-03-05T09:00:12.790Z,94499.56
2023-03-05T09:03:16.052Z,94497.69
2023-03-05T09:06:19.298Z,94502.22
2023-03-05T09:09:23.218Z,94494.53
2023-03-05T09:12:26.580Z,94492.66
2023-03-05T09:15:31.244Z,94493.47
2023-03-05T09:18:36.881Z,94480.47
2023-03-05T09:21:40.149Z,94478.59
2023-03-05T09:24:43.545Z,94486.25
2023-03-05T09:27:46.773Z,94482.03
2023-03-05T09:30:51.295Z,94481.72
2023-03-05T09:33:54.465Z,94467.13
2023-03-05T09:36:57.618Z,94475.31
2023-03-05T09:40:00.852Z,94472.19
2023-03-05T09:43:13.224Z,94465.91
2023-03-05T09:46:42.098Z,94468.59
2023-03-05T09:49:54.051Z,94460.03
2023-03-05T09:53:02.862Z,94454.09
2023-03-05T09:56:12.190Z,94454.88
2023-03-05T09:59:33.649Z,94443.91
2023-03-05T10:02:48.350Z,94450.97
2023-03-05T10:06:16.431Z,94441.91
2023-03-05T10:09:31.786Z,94438.63
2023-03-05T10:12:42.770Z,94443.81
2023-03-05T10:15:57.442Z,94428.00
2023-03-05T10:19:11.061Z,94428.00
2023-03-05T10:22:21.409Z,94421.91
2023-03-05T10:25:32.650Z,94415.19
2023-03-05T10:28:44.469Z,94401.88
2023-03-05T10:32:00.396Z,94406.44
2023-03-05T10:35:24.632Z,94401.75
2023-03-05T10:38:48.248Z,94398.59
2023-03-05T10:42:02.535Z,94397.03
2023-03-05T10:45:15.336Z,94390.16
2023-03-05T10:48:28.722Z,94391.25
2023-03-05T10:51:38.104Z,94387.69
2023-03-05T10:54:42.990Z,94382.34
2023-03-05T10:57:46.329Z,94373.41
2023-03-05T11:01:05.343Z,94366.53
2023-03-05T11:04:26.426Z,94367.50
2023-03-05T11:07:39.225Z,94355.56
2023-03-05T11:10:42.483Z,94355.09
2023-03-05T11:13:54.060Z,94337.59
2023-03-05T11:16:57.887Z,94348.53
2023-03-05T11:20:30.832Z,94339.75
2023-03-05T11:23:35.323Z,94340.25
2023-03-05T11:26:38.538Z,94332.91
2023-03-05T11:29:50.342Z,94332.44
2023-03-05T11:33:10.474Z,94334.47
2023-03-05T11:36:23.998Z,94321.31
2023-03-05T11:39:32.801Z,94320.53
2023-03-05T11:42:36.360Z,94317.88
2023-03-05T11:45:40.411Z,94305.97
2023-03-05T11:48:46.268Z,94301.44
2023-03-05T11:52:00.242Z,94296.44
2023-03-05T11:55:10.626Z,94291.56
2023-03-05T11:58:27.709Z,94290.00
2023-03-05T12:01:35.268Z,94284.53
2023-03-05T12:04:39.239Z,94280.50
2023-03-05T12:07:48.298Z,94254.50
2023-03-05T12:10:54.516Z,94259.81
2023-03-05T12:14:05.547Z,94264.03
2023-03-05T12:17:15.733Z,94263.75
2023-03-05T12:20:29.082Z,94261.09
2023-03-05T12:23:46.641Z,94258.91
2023-03-05T12:27:07.623Z,94252.78
2023-03-05T12:30:55.771Z,94245.28
2023-03-05T12:33:59.598Z,94242.94
2023-03-05T12:37:06.082Z,94247.47
2023-03-05T12:40:23.045Z,94236.06
2023-03-05T12:43:33.374Z,94246.22
2023-03-05T12:46:37.811Z,94234.19
2023-03-05T12:49:41.678Z,94240.94
2023-03-05T12:52:47.853Z,94233.28
2023-03-05T12:55:58.295Z,94231.72
2023-03-05T12:59:05.177Z,94241.06
2023-03-05T13:02:22.030Z,94232.47
2023-03-05T13:05:29.078Z,94232.72
2023-03-05T13:08:35.711Z,94228.84
2023-03-05T13:11:40.646Z,94225.06
2023-03-05T13:14:48.087Z,94226.19
2023-03-05T13:17:57.859Z,94222.78
2023-03-05T13:21:05.814Z,94234.19
2023-03-05T13:24:18.148Z,94227.47
2023-03-05T13:27:26.529Z,94226.19
2023-03-05T13:30:34.646Z,94223.84
2023-03-05T13:33:38.275Z,94223.38
2023-03-05T13:36:41.849Z,94223.03
2023-03-05T13:39:50.170Z,94228.06
2023-03-05T13:42:54.541Z,94227.13
2023-03-05T13:45:59.898Z,94228.38
2023-03-05T13:49:23.769Z,94230.41
2023-03-05T13:52:29.863Z,94220.56
2023-03-05T13:55:32.994Z,94223.22
2023-03-05T13:58:48.672Z,94219.44
2023-03-05T14:01:54.182Z,94227.13
2023-03-05T14:04:57.666Z,94220.72
2023-03-05T14:08:01.007Z,94209.13
2023-03-05T14:11:14.678Z,94221.31
2023-03-05T14:14:21.071Z,94214.59
2023-03-05T14:17:40.263Z,94219.94
2023-03-05T14:21:00.739Z,94219.16
2023-03-05T14:24:14.413Z,94221.31
2023-03-05T14:27:22.798Z,94220.25
2023-03-05T14:30:26.718Z,94221.66
2023-03-05T14:33:33.924Z,94216.47
2023-03-05T14:36:39.060Z,94224.13
2023-03-05T14:39:46.944Z,94218.81
2023-03-05T14:42:55.553Z,94216.34
2023-03-05T14:45:58.683Z,94216.16
2023-03-05T14:49:04.209Z,94216.16
2023-03-05T14:52:07.476Z,94220.09
2023-03-05T14:55:16.690Z,94207.09
2023-03-05T14:58:22.026Z,94218.94
2023-03-05T15:01:25.648Z,94207.06
2023-03-05T15:04:30.199Z,94201.28
2023-03-05T15:07:33.652Z,94210.63
2023-03-05T15:10:36.710Z,94215.34
2023-03-05T15:13:39.854Z,94216.78
2023-03-05T15:16:45.504Z,94218.81
2023-03-05T15:19:50.649Z,94214.13
2023-03-05T15:22:53.870Z,94216.16
2023-03-05T15:25:57.021Z,94206.41
2023-03-05T15:29:00.440Z,94206.41
2023-03-05T15:32:04.986Z,94210.34
2023-03-05T15:35:10.899Z,94206.72
2023-03-05T15:38:15.480Z,94207.81
2023-03-05T15:41:18.722Z,94207.97
2023-03-05T15:44:22.184Z,94205.47
2023-03-05T15:47:25.346Z,94225.34
2023-03-05T15:50:30.032Z,94216.13
2023-03-05T15:53:33.305Z,94219.56
2023-03-05T15:56:36.466Z,94222.22
2023-03-05T15:59:40.536Z,94214.25
2023-03-05T16:02:43.856Z,94224.44
2023-03-05T16:05:48.507Z,94225.03
2023-03-05T16:08:53.599Z,94228.81
2023-03-05T16:11:57.225Z,94228.47
2023-03-05T16:15:00.570Z,94221.00
2023-03-05T16:18:07.278Z,94230.38
2023-03-05T16:21:12.485Z,94236.47
2023-03-05T16:24:15.823Z,94230.22
2023-03-05T16:27:19.074Z,94223.66
2023-03-05T16:30:22.849Z,94241.00
2023-03-05T16:33:26.209Z,94243.31
2023-03-05T16:36:35.497Z,94241.31
2023-03-05T16:39:40.788Z,94251.03
2023-03-05T16:42:44.368Z,94246.50
2023-03-05T16:45:47.539Z,94246.63
2023-03-05T16:48:51.041Z,94251.91
2023-03-05T16:51:56.672Z,94259.88
2023-03-05T16:55:01.113Z,94268.50
2023-03-05T16:58:04.511Z,94262.22
2023-03-05T17:01:11.257Z,94261.31
2023-03-05T17:04:14.484Z,94266.00
2023-03-05T17:07:19.699Z,94281.34
2023-03-05T17:10:23.015Z,94274.28
2023-03-05T17:13:26.198Z,94285.09
2023-03-05T17:16:29.402Z,94285.09
2023-03-05T17:19:32.772Z,94284.03
2023-03-05T17:22:37.325Z,94293.34
2023-03-05T17:25:40.502Z,94296.66
2023-03-05T17:28:43.770Z,94300.69
2023-03-05T17:31:47.557Z,94300.84
2023-03-05T17:34:55.023Z,94317.66
2023-03-05T17:38:00.042Z,94305.81
2023-03-05T17:41:03.198Z,94316.16
2023-03-05T17:44:06.637Z,94311.97
2023-03-05T17:47:10.001Z,94308.22
2023-03-05T17:50:14.114Z,94314.91
2023-03-05T17:53:18.775Z,94317.13
2023-03-05T17:56:22.286Z,94320.53
2023-03-05T17:59:26.628Z,94330.22
2023-03-05T18:02:29.832Z,94320.34
2023-03-05T18:05:33.469Z,94328.16
2023-03-05T18:08:38.096Z,94336.09
2023-03-05T18:11:41.431Z,94335.75
2023-03-05T18:14:44.563Z,94335.91
2023-03-05T18:17:47.840Z,94327.63
2023-03-05T18:20:51.194Z,94335.59
2023-03-05T18:23:55.804Z,94328.41
2023-03-05T18:26:58.899Z,94332.31
2023-03-05T18:30:02.108Z,94336.53
2023-03-05T18:33:05.781Z,94330.28
2023-03-05T18:36:10.856Z,94338.28
2023-03-05T18:39:16.415Z,94341.88
2023-03-05T18:42:19.985Z,94341.88
2023-03-05T18:45:24.094Z,94340.31
2023-03-05T18:48:27.561Z,94351.72
2023-03-05T18:51:30.787Z,94350.94
2023-03-05T18:54:35.359Z,94351.72
2023-03-05T18:57:38.564Z,94337.97
2023-03-05T19:00:42.518Z,94347.19
2023-03-05T19:03:46.041Z,94351.72
2023-03-05T19:06:49.219Z,94355.97
2023-03-05T19:09:58.925Z,94344.13
2023-03-05T19:13:39.866Z,94365.38
2023-03-05T19:16:44.284Z,94355.34
2023-03-05T19:19:51.861Z,94358.34
2023-03-05T19:22:55.869Z,94368.06
2023-03-05T19:26:01.985Z,94366.34
2023-03-05T19:29:05.614Z,94355.09
2023-03-05T19:32:10.286Z,94367.75
2023-03-05T19:35:16.081Z,94352.47
2023-03-05T19:38:19.166Z,94371.50
2023-03-05T19:41:23.856Z,94375.72
2023-03-05T19:44:27.287Z,94371.81
2023-03-05T19:47:30.373Z,94379.19
2023-03-05T19:50:34.649Z,94377.28
2023-03-05T19:53:37.857Z,94376.84
2023-03-05T19:56:43.439Z,94380.59
2023-03-05T19:59:46.906Z,94365.25
2023-03-05T20:02:50.061Z,94378.25
2023-03-05T20:05:53.180Z,94374.16
2023-03-05T20:08:57.186Z,94378.25
2023-03-05T20:12:04.718Z,94382.78
2023-03-05T20:15:08.771Z,94387.78
2023-03-05T20:18:11.928Z,94371.38
2023-03-05T20:21:21.492Z,94391.88
2023-03-05T20:24:24.688Z,94391.88
2023-03-05T20:27:29.292Z,94400.97
2023-03-05T20:30:32.567Z,94390.63
2023-03-05T20:33:35.813Z,94400.31
2023-03-05T20:36:40.144Z,94393.75
2023-03-05T20:39:43.420Z,94400.19
2023-03-05T20:42:48.084Z,94397.19
2023-03-05T20:45:53.189Z,94397.06
2023-03-05T20:48:59.173Z,94394.84
2023-03-05T20:52:02.362Z,94396.72
2023-03-05T20:55:06.521Z,94382.00
2023-03-05T20:58:11.708Z,94389.38
2023-03-05T21:01:14.917Z,94389.22
2023-03-05T21:04:18.073Z,94386.25
2023-03-05T21:07:21.233Z,94390.16
2023-03-05T21:10:24.885Z,94384.66
2023-03-05T21:13:30.944Z,94386.53
2023-03-05T21:16:34.249Z,94386.72
2023-03-05T21:19:40.247Z,94379.38
2023-03-05T21:22:43.373Z,94388.59
2023-03-05T21:25:46.556Z,94383.28
2023-03-05T21:28:51.121Z,94362.31
2023-03-05T21:31:54.464Z,94375.16
2023-03-05T21:34:59.405Z,94370.59
2023-03-05T21:38:06.386Z,94379.69
2023-03-05T21:41:09.476Z,94386.09
2023-03-05T21:44:17.792Z,94374.22
2023-03-05T21:47:22.375Z,94381.88
2023-03-05T21:50:27.007Z,94382.78
2023-03-05T21:53:30.113Z,94385.13
2023-03-05T21:56:33.280Z,94375.91
2023-03-05T21:59:41.089Z,94377.47
2023-03-05T22:02:44.420Z,94372.47
2023-03-05T22:05:47.641Z,94378.25
2023-03-05T22:08:50.876Z,94380.13
2023-03-05T22:11:54.060Z,94368.41
2023-03-05T22:14:58.622Z,94380.75
2023-03-05T22:18:02.118Z,94383.09
2023-03-05T22:21:06.185Z,94376.53
2023-03-05T22:24:10.568Z,94381.53
2023-03-05T22:27:13.666Z,94369.50
2023-03-05T22:30:18.453Z,94373.09
2023-03-05T22:33:23.113Z,94373.41
2023-03-05T22:36:26.404Z,94379.19
2023-03-05T22:39:29.506Z,94381.09
2023-03-05T22:42:32.563Z,94387.50
2023-03-05T22:45:37.128Z,94387.50
2023-03-05T22:48:40.364Z,94393.59
2023-03-05T22:51:43.495Z,94391.25
2023-03-05T22:54:46.930Z,94399.22
2023-03-05T22:57:50.183Z,94396.56
2023-03-05T23:00:54.666Z,94394.53
2023-03-05T23:04:48.022Z,94388.91
2023-03-05T23:07:51.172Z,94400.31
2023-03-05T23:10:54.432Z,94397.66
2023-03-05T23:13:57.564Z,94401.41
2023-03-05T23:17:02.137Z,94402.19
2023-03-05T23:20:08.106Z,94409.41
2023-03-05T23:23:11.242Z,94403.63
2023-03-05T23:26:14.436Z,94407.84
2023-03-05T23:29:55.341Z,94407.38
2023-03-05T23:33:01.682Z,94418.00
2023-03-05T23:36:05.269Z,94416.91
2023-03-05T23:39:08.342Z,94416.13
2023-03-05T23:42:11.547Z,94421.44
2023-03-05T23:45:17.358Z,94413.31
2023-03-05T23:48:23.096Z,94412.69
2023-03-05T23:51:26.269Z,94421.75
2023-03-05T23:54:29.461Z,94400.78
2023-03-05T23:57:32.564Z,94422.84
